Aeroporto :
LOGIN :

Iscrizione | Disclaimer

   EN    FR    IT 

 










Sommario :    VFR   VFR Marginale   IFR   IFR Intensivo   IFR Molto Intensivo
Visibilità : 
Base nubi : 
>= 8 km
>= 3000ft
5 / 8 km
1000 / 3000 ft
1500m / 5 km
500 / 1000 ft
800 / 1500m
200 / 500 ft
< 800m
< 200 ft
Simboli :   Temporali  Nebbia  Neve Forte  Precipitazioni Forti  Vento > 20 kt
SIGMETs :   Varie  Temporali  Ghiacco  Turbolenza  Onda orograficha  Ceneri Vulcaniche






- Altitudine del aeroporto : 171 ft
- Codice IATA : EGC


LFBE - Bergerac

ULTIMO METAR :
  • 140230Z AUTO 23003KT 9999 OVC038 19/18 Q1018 NOSIG

METARs OBSOLETI :
  • 140200Z AUTO 22003KT 9999 SCT026 OVC038 19/18 Q1018 NOSIG
  • 140130Z AUTO 23004KT 9999 FEW025 OVC033 19/18 Q1018 NOSIG
  • 140100Z AUTO 23005KT 9000 -RA FEW016 BKN030 OVC037 19/18 Q1018 NOSIG
  • 140030Z AUTO 20003KT 9999 SCT015 BKN020 BKN026 19/19 Q1018 NOSIG
  • 140000Z AUTO VRB02KT 9999 OVC036 19/19 Q1018 NOSIG

TAF TAF LFBE
Valido dal 14 a 00 ore il 15 a 00 ore UTC


132300Z 1400/1424 VRB03KT 9999 BKN025



MetMap, La meteo Aeronautica in un colpo d'occhio ! - Copyright ORBIFLY Dicembre 2007 - Disclaimer

ORBIFLY MET'MAP TEAM :

Programmazione e sviluppo : Alexandra Zaïnal
Concezione : Baudouin d'Aumeries
Aiuto per la programmazione : Marc-Olivier Méhu
Supporto tecnico e logistico : Manuel Goepfert
Aiuto per la traduzione : Arnaldo La Scala

Contatto : metmap@orbifly.com




FONTI E CREDITI :

   NOAA